createdAt,value
2018-09-04T00:00:54.411Z,0.00
2018-09-04T00:01:54.284Z,0.00
2018-09-04T00:02:54.160Z,0.00
2018-09-04T00:03:54.031Z,0.00
2018-09-04T00:04:53.909Z,0.00
2018-09-04T00:05:53.784Z,0.00
2018-09-04T00:06:53.653Z,0.00
2018-09-04T00:07:53.526Z,0.00
2018-09-04T00:08:53.404Z,0.00
2018-09-04T00:09:53.275Z,0.00
2018-09-04T00:10:53.151Z,0.00
2018-09-04T00:11:53.021Z,0.00
2018-09-04T00:12:52.895Z,0.00
2018-09-04T00:13:52.769Z,0.00
2018-09-04T00:14:52.646Z,0.00
2018-09-04T00:15:52.517Z,0.00
2018-09-04T00:16:52.392Z,0.00
2018-09-04T00:17:52.266Z,0.00
2018-09-04T00:18:52.139Z,0.00
2018-09-04T00:19:52.014Z,0.00
2018-09-04T00:20:51.887Z,0.00
2018-09-04T00:21:51.761Z,0.00
2018-09-04T00:22:51.636Z,0.00
2018-09-04T00:23:51.509Z,0.00
2018-09-04T00:24:51.385Z,0.00
2018-09-04T00:25:51.262Z,0.00
2018-09-04T00:26:51.130Z,0.00
2018-09-04T00:27:51.004Z,0.00
2018-09-04T00:28:50.877Z,0.00
2018-09-04T00:29:50.752Z,0.00
2018-09-04T00:30:50.629Z,0.00
2018-09-04T00:31:50.500Z,0.00
2018-09-04T00:32:50.377Z,0.00
2018-09-04T00:33:50.248Z,0.00
2018-09-04T00:34:50.122Z,0.00
2018-09-04T00:35:49.995Z,0.00
2018-09-04T00:36:49.869Z,0.00
2018-09-04T00:37:49.745Z,0.00
2018-09-04T00:38:49.618Z,0.00
2018-09-04T00:39:49.490Z,0.00
2018-09-04T00:40:49.363Z,0.00
2018-09-04T00:41:49.238Z,0.00
2018-09-04T00:42:49.114Z,0.00
2018-09-04T00:43:48.985Z,0.00
2018-09-04T00:44:48.859Z,0.00
2018-09-04T00:45:48.732Z,0.00
2018-09-04T00:46:48.606Z,0.00
2018-09-04T00:47:48.481Z,0.00
2018-09-04T00:48:48.355Z,0.00
2018-09-04T00:49:48.231Z,0.00
2018-09-04T00:50:48.106Z,0.00
2018-09-04T00:51:47.976Z,0.00
2018-09-04T00:52:47.851Z,0.00
2018-09-04T00:53:47.725Z,0.00
2018-09-04T00:54:47.599Z,0.00
2018-09-04T00:55:47.474Z,0.00
2018-09-04T00:56:47.347Z,0.00
2018-09-04T00:57:47.218Z,0.00
2018-09-04T00:58:47.093Z,0.00
2018-09-04T00:59:46.966Z,0.00
2018-09-04T01:00:46.843Z,0.00
2018-09-04T01:01:46.714Z,0.00
2018-09-04T01:02:46.590Z,0.00
2018-09-04T01:03:46.462Z,0.00
2018-09-04T01:04:46.334Z,0.00
2018-09-04T01:05:46.209Z,0.00
2018-09-04T01:06:46.085Z,0.00
2018-09-04T01:07:45.957Z,0.00
2018-09-04T01:08:45.831Z,0.00
2018-09-04T01:09:45.704Z,0.00
2018-09-04T01:10:45.578Z,0.00
2018-09-04T01:11:45.456Z,0.00
2018-09-04T01:12:45.325Z,0.00
2018-09-04T01:13:45.199Z,0.00
2018-09-04T01:14:45.071Z,0.00
2018-09-04T01:15:44.946Z,0.00
2018-09-04T01:16:44.818Z,0.00
2018-09-04T01:17:44.692Z,0.00
2018-09-04T01:18:44.565Z,0.00
2018-09-04T01:19:44.439Z,0.00
2018-09-04T01:20:44.312Z,0.00
2018-09-04T01:21:44.190Z,0.00
2018-09-04T01:22:44.060Z,0.00
2018-09-04T01:23:43.932Z,0.00
2018-09-04T01:24:43.806Z,0.00
2018-09-04T01:25:43.678Z,0.00
2018-09-04T01:26:43.557Z,0.00
2018-09-04T01:27:43.425Z,0.00
2018-09-04T01:28:43.298Z,0.00
2018-09-04T01:29:43.171Z,0.00
2018-09-04T01:30:43.046Z,0.00
2018-09-04T01:31:42.921Z,0.00
2018-09-04T01:32:42.795Z,0.00
2018-09-04T01:33:42.665Z,0.00
2018-09-04T01:34:42.540Z,0.00
2018-09-04T01:35:42.410Z,0.00
2018-09-04T01:36:42.284Z,0.00
2018-09-04T01:37:42.156Z,0.00
2018-09-04T01:38:42.032Z,0.00
2018-09-04T01:39:41.906Z,0.00
2018-09-04T01:40:41.776Z,0.00
2018-09-04T01:41:41.654Z,0.00
2018-09-04T01:42:41.523Z,0.00
2018-09-04T01:43:41.399Z,0.00
2018-09-04T01:44:41.269Z,0.00
2018-09-04T01:45:41.144Z,0.00
2018-09-04T01:46:41.015Z,0.00
2018-09-04T01:47:40.890Z,0.00
2018-09-04T01:48:40.765Z,0.00
2018-09-04T01:49:40.635Z,0.00
2018-09-04T01:50:40.512Z,0.00
2018-09-04T01:51:40.385Z,0.00
2018-09-04T01:52:40.256Z,0.00
2018-09-04T01:53:40.131Z,0.00
2018-09-04T01:54:40.002Z,0.00
2018-09-04T01:55:39.876Z,0.00
2018-09-04T01:56:39.746Z,0.00
2018-09-04T01:57:39.623Z,0.00
2018-09-04T01:58:39.494Z,0.00
2018-09-04T01:59:39.367Z,0.00
2018-09-04T02:00:39.239Z,0.00
2018-09-04T02:01:39.112Z,0.00
2018-09-04T02:02:38.990Z,0.00
2018-09-04T02:03:38.861Z,0.00
2018-09-04T02:04:38.733Z,0.00
2018-09-04T02:05:38.606Z,0.00
2018-09-04T02:06:38.479Z,0.00
2018-09-04T02:07:38.353Z,0.00
2018-09-04T02:08:38.227Z,0.00
2018-09-04T02:09:38.097Z,0.00
2018-09-04T02:10:37.972Z,0.00
2018-09-04T02:11:37.845Z,0.00
2018-09-04T02:12:37.722Z,0.00
2018-09-04T02:13:37.592Z,0.00
2018-09-04T02:14:37.464Z,0.00
2018-09-04T02:15:37.338Z,0.00
2018-09-04T02:16:37.215Z,0.00
2018-09-04T02:17:37.126Z,0.00
2018-09-04T02:18:36.958Z,0.00
2018-09-04T02:19:36.829Z,0.00
2018-09-04T02:20:36.704Z,0.00
2018-09-04T02:21:36.579Z,0.00
2018-09-04T02:22:36.454Z,0.00
2018-09-04T02:23:36.324Z,0.00
2018-09-04T02:24:36.198Z,0.00
2018-09-04T02:25:36.070Z,0.00
2018-09-04T02:26:35.943Z,0.00
2018-09-04T02:27:35.820Z,0.00
2018-09-04T02:28:35.692Z,0.00
2018-09-04T02:29:35.564Z,0.00
2018-09-04T02:30:35.440Z,0.00
2018-09-04T02:31:35.311Z,0.00
2018-09-04T02:32:35.195Z,0.00
2018-09-04T02:33:35.065Z,0.00
2018-09-04T02:34:34.931Z,0.00
2018-09-04T02:35:34.805Z,0.00
2018-09-04T02:36:34.679Z,0.00
2018-09-04T02:37:34.551Z,0.00
2018-09-04T02:38:34.426Z,0.00
2018-09-04T02:39:34.297Z,0.00
2018-09-04T02:40:34.170Z,0.00
2018-09-04T02:41:34.048Z,0.00
2018-09-04T02:42:33.918Z,0.00
2018-09-04T02:43:33.795Z,0.00
2018-09-04T02:44:33.666Z,0.00
2018-09-04T02:45:33.539Z,0.00
2018-09-04T02:46:33.414Z,0.00
2018-09-04T02:47:33.286Z,0.00
2018-09-04T02:48:33.160Z,0.00
2018-09-04T02:49:33.036Z,0.00
2018-09-04T02:50:32.907Z,0.00
2018-09-04T02:51:32.781Z,0.00
2018-09-04T02:52:32.658Z,0.00
2018-09-04T02:53:32.526Z,0.00
2018-09-04T02:54:32.399Z,0.00
2018-09-04T02:55:32.275Z,0.00
2018-09-04T02:56:32.148Z,0.00
2018-09-04T02:57:32.021Z,0.00
2018-09-04T02:58:31.895Z,0.00
2018-09-04T02:59:31.771Z,0.00
2018-09-04T03:00:31.655Z,0.00
2018-09-04T03:01:31.515Z,0.00
2018-09-04T03:02:31.390Z,0.00
2018-09-04T03:03:31.265Z,0.00
2018-09-04T03:04:31.135Z,0.00
2018-09-04T03:05:31.011Z,0.00
2018-09-04T03:06:30.881Z,0.00
2018-09-04T03:07:30.756Z,0.00
2018-09-04T03:08:30.637Z,0.00
2018-09-04T03:09:30.502Z,0.00
2018-09-04T03:10:30.378Z,0.00
2018-09-04T03:11:30.247Z,0.00
2018-09-04T03:12:30.124Z,0.00
2018-09-04T03:13:30.039Z,0.00
2018-09-04T03:14:29.868Z,0.00
2018-09-04T03:15:29.741Z,0.00
2018-09-04T03:16:29.617Z,0.00
2018-09-04T03:17:29.489Z,0.00
2018-09-04T03:18:29.364Z,0.00
2018-09-04T03:19:29.236Z,0.00
2018-09-04T03:20:29.119Z,0.00
2018-09-04T03:21:28.984Z,0.00
2018-09-04T03:22:28.861Z,0.00
2018-09-04T03:23:28.734Z,0.00
2018-09-04T03:24:28.605Z,0.00
2018-09-04T03:25:28.481Z,0.00
2018-09-04T03:26:28.355Z,0.00
2018-09-04T03:27:28.228Z,0.00
2018-09-04T03:28:28.103Z,0.00
2018-09-04T03:29:27.976Z,0.00
2018-09-04T03:30:27.849Z,0.00
2018-09-04T03:31:27.728Z,0.00
2018-09-04T03:32:27.598Z,0.00
2018-09-04T03:33:27.473Z,0.00
2018-09-04T03:34:27.345Z,0.00
2018-09-04T03:35:27.225Z,0.00
2018-09-04T03:36:27.095Z,0.00
2018-09-04T03:37:26.970Z,0.00
2018-09-04T03:38:26.844Z,0.00
2018-09-04T03:39:26.728Z,0.00
2018-09-04T03:40:26.593Z,0.00
2018-09-04T03:41:26.463Z,0.00
2018-09-04T03:42:26.434Z,0.00
2018-09-04T03:43:26.214Z,0.00
2018-09-04T03:44:26.125Z,0.00
2018-09-04T03:45:25.960Z,0.00
2018-09-04T03:46:25.836Z,0.00
2018-09-04T03:47:25.709Z,0.00
2018-09-04T03:48:25.585Z,0.00
2018-09-04T03:49:25.457Z,0.00
2018-09-04T03:50:25.334Z,0.00
2018-09-04T03:51:25.206Z,0.00
2018-09-04T03:52:25.176Z,0.00
2018-09-04T03:53:24.953Z,0.00
2018-09-04T03:54:24.829Z,0.00
2018-09-04T03:55:24.702Z,0.00
2018-09-04T03:56:24.578Z,0.00
2018-09-04T03:57:24.451Z,0.00
2018-09-04T03:58:24.322Z,0.00
2018-09-04T03:59:24.250Z,0.00
2018-09-04T04:00:24.074Z,0.00
2018-09-04T04:01:24.004Z,0.00
2018-09-04T04:02:23.821Z,0.00
2018-09-04T04:03:23.701Z,0.00
2018-09-04T04:04:23.567Z,0.00
2018-09-04T04:05:23.441Z,0.00
2018-09-04T04:06:23.318Z,0.00
2018-09-04T04:07:23.192Z,0.00
2018-09-04T04:08:23.065Z,0.00
2018-09-04T04:09:22.938Z,0.00
2018-09-04T04:10:22.812Z,0.00
2018-09-04T04:11:22.687Z,0.00
2018-09-04T04:12:22.560Z,0.00
2018-09-04T04:13:22.437Z,0.00
2018-09-04T04:14:22.307Z,0.00
2018-09-04T04:15:22.182Z,0.00
2018-09-04T04:16:22.055Z,0.00
2018-09-04T04:17:21.930Z,0.00
2018-09-04T04:18:21.805Z,0.00
2018-09-04T04:19:21.679Z,0.00
2018-09-04T04:20:21.555Z,0.00
2018-09-04T04:21:21.435Z,0.00
2018-09-04T04:22:21.300Z,0.00
2018-09-04T04:23:21.177Z,0.00
2018-09-04T04:24:21.047Z,0.00
2018-09-04T04:25:20.923Z,0.00
2018-09-04T04:26:20.795Z,4.00
2018-09-04T04:27:20.668Z,4.00
2018-09-04T04:28:20.543Z,0.00
2018-09-04T04:29:20.417Z,4.00
2018-09-04T04:30:20.293Z,4.00
2018-09-04T04:31:20.163Z,8.00
2018-09-04T04:32:20.039Z,4.00
2018-09-04T04:33:19.917Z,8.00
2018-09-04T04:34:19.785Z,8.00
2018-09-04T04:35:19.659Z,8.00
2018-09-04T04:36:19.533Z,12.00
2018-09-04T04:37:19.408Z,12.00
2018-09-04T04:38:19.282Z,16.00
2018-09-04T04:39:19.153Z,16.00
2018-09-04T04:40:19.029Z,16.00
2018-09-04T04:41:18.904Z,20.00
2018-09-04T04:42:18.777Z,20.00
2018-09-04T04:43:18.651Z,24.00
2018-09-04T04:44:18.533Z,24.00
2018-09-04T04:45:18.403Z,24.00
2018-09-04T04:46:18.274Z,32.00
2018-09-04T04:47:18.154Z,32.00
2018-09-04T04:48:18.101Z,36.00
2018-09-04T04:49:17.898Z,36.00
2018-09-04T04:50:17.770Z,40.00
2018-09-04T04:51:17.644Z,40.00
2018-09-04T04:52:17.519Z,44.00
2018-09-04T04:53:17.394Z,44.00
2018-09-04T04:54:17.266Z,48.00
2018-09-04T04:55:17.144Z,52.00
2018-09-04T04:56:17.016Z,52.00
2018-09-04T04:57:16.892Z,56.00
2018-09-04T04:58:16.767Z,56.00
2018-09-04T04:59:16.638Z,60.00
2018-09-04T05:00:16.628Z,60.00
2018-09-04T05:01:16.389Z,64.00
2018-09-04T05:02:16.263Z,68.00
2018-09-04T05:03:16.137Z,76.00
2018-09-04T05:04:16.013Z,76.00
2018-09-04T05:05:15.887Z,84.00
2018-09-04T05:06:15.765Z,92.00
2018-09-04T05:07:15.635Z,96.00
2018-09-04T05:08:15.511Z,100.00
2018-09-04T05:09:15.388Z,104.00
2018-09-04T05:10:15.260Z,108.00
2018-09-04T05:11:15.240Z,112.00
2018-09-04T05:12:15.004Z,116.00
2018-09-04T05:13:14.880Z,120.00
2018-09-04T05:14:14.756Z,124.00
2018-09-04T05:15:14.629Z,128.00
2018-09-04T05:16:14.510Z,136.00
2018-09-04T05:17:14.378Z,140.00
2018-09-04T05:18:14.255Z,148.00
2018-09-04T05:19:14.127Z,156.00
2018-09-04T05:20:14.003Z,172.00
2018-09-04T05:21:13.876Z,184.00
2018-09-04T05:22:13.751Z,200.00
2018-09-04T05:23:13.627Z,204.00
2018-09-04T05:24:13.499Z,208.00
2018-09-04T05:25:13.374Z,212.00
2018-09-04T05:26:13.250Z,228.00
2018-09-04T05:27:13.123Z,256.00
2018-09-04T05:28:12.995Z,260.00
2018-09-04T05:29:12.871Z,248.00
2018-09-04T05:30:12.745Z,224.00
2018-09-04T05:31:12.621Z,224.00
2018-09-04T05:32:12.494Z,240.00
2018-09-04T05:33:12.369Z,308.00
2018-09-04T05:34:12.246Z,344.00
2018-09-04T05:35:12.119Z,368.00
2018-09-04T05:36:11.991Z,388.00
2018-09-04T05:37:11.872Z,404.00
2018-09-04T05:38:11.741Z,416.00
2018-09-04T05:39:11.617Z,420.00
2018-09-04T05:40:11.493Z,424.00
2018-09-04T05:41:11.366Z,424.00
2018-09-04T05:42:11.244Z,444.00
2018-09-04T05:43:11.116Z,504.00
2018-09-04T05:44:10.990Z,556.00
2018-09-04T05:45:10.863Z,584.00
2018-09-04T05:46:10.739Z,588.00
2018-09-04T05:47:10.613Z,572.00
2018-09-04T05:48:10.502Z,568.00
2018-09-04T05:49:10.360Z,600.00
2018-09-04T05:50:10.240Z,656.00
2018-09-04T05:51:10.111Z,688.00
2018-09-04T05:52:09.986Z,704.00
2018-09-04T05:53:09.861Z,764.00
2018-09-04T05:54:09.735Z,824.00
2018-09-04T05:55:09.621Z,836.00
2018-09-04T05:56:09.486Z,848.00
2018-09-04T05:57:09.357Z,868.00
2018-09-04T05:58:09.233Z,900.00
2018-09-04T05:59:09.109Z,932.00
2018-09-04T06:00:08.981Z,960.00
2018-09-04T06:01:08.854Z,980.00
2018-09-04T06:02:08.735Z,972.00
2018-09-04T06:03:08.604Z,976.00
2018-09-04T06:04:08.478Z,984.00
2018-09-04T06:05:08.356Z,1008.00
2018-09-04T06:06:08.227Z,1044.00
2018-09-04T06:07:08.102Z,1104.00
2018-09-04T06:08:07.976Z,1180.00
2018-09-04T06:09:07.852Z,1272.00
2018-09-04T06:10:07.729Z,1404.00
2018-09-04T06:11:07.599Z,1564.00
2018-09-04T06:12:07.479Z,1608.00
2018-09-04T06:13:07.350Z,1676.00
2018-09-04T06:14:07.228Z,1728.00
2018-09-04T06:15:07.145Z,1708.00
2018-09-04T06:16:06.976Z,1668.00
2018-09-04T06:17:06.849Z,1576.00
2018-09-04T06:18:06.725Z,1404.00
2018-09-04T06:19:06.602Z,1220.00
2018-09-04T06:20:06.540Z,1140.00
2018-09-04T06:21:06.352Z,1192.00
2018-09-04T06:22:06.226Z,1220.00
2018-09-04T06:23:06.113Z,1200.00
2018-09-04T06:24:05.973Z,1124.00
2018-09-04T06:25:05.849Z,1064.00
2018-09-04T06:26:05.729Z,1064.00
2018-09-04T06:27:05.606Z,1076.00
2018-09-04T06:28:05.474Z,1116.00
2018-09-04T06:29:05.352Z,1232.00
2018-09-04T06:30:05.226Z,1352.00
2018-09-04T06:31:05.101Z,1344.00
2018-09-04T06:32:04.976Z,1436.00
2018-09-04T06:33:04.850Z,1480.00
2018-09-04T06:34:04.761Z,1412.00
2018-09-04T06:35:04.601Z,1356.00
2018-09-04T06:36:04.476Z,1288.00
2018-09-04T06:37:04.353Z,1284.00
2018-09-04T06:38:04.227Z,1264.00
2018-09-04T06:39:04.101Z,1240.00
2018-09-04T06:40:03.979Z,1196.00
2018-09-04T06:41:03.850Z,1220.00
2018-09-04T06:42:03.728Z,1264.00
2018-09-04T06:43:03.600Z,1352.00
2018-09-04T06:44:03.480Z,1096.00
2018-09-04T06:45:03.352Z,1328.00
2018-09-04T06:46:03.229Z,1396.00
2018-09-04T06:47:03.102Z,1440.00
2018-09-04T06:48:02.977Z,1384.00
2018-09-04T06:49:02.855Z,1428.00
2018-09-04T06:50:02.728Z,1560.00
2018-09-04T06:51:02.602Z,1480.00
2018-09-04T06:52:02.482Z,1556.00
2018-09-04T06:53:02.354Z,1460.00
2018-09-04T06:54:02.233Z,1416.00
2018-09-04T06:55:02.109Z,1348.00
2018-09-04T06:56:01.981Z,1328.00
2018-09-04T06:57:01.856Z,1388.00
2018-09-04T06:58:01.838Z,1488.00
2018-09-04T06:59:01.610Z,1456.00
2018-09-04T07:00:01.486Z,1424.00
2018-09-04T07:01:01.361Z,1340.00
2018-09-04T07:02:01.235Z,1252.00
2018-09-04T07:03:01.109Z,1200.00
2018-09-04T07:04:00.984Z,1344.00
2018-09-04T07:05:00.861Z,1380.00
2018-09-04T07:06:00.795Z,1432.00
2018-09-04T07:07:00.609Z,1472.00
2018-09-04T07:08:00.485Z,1400.00
2018-09-04T07:09:00.364Z,1328.00
2018-09-04T07:10:00.239Z,1292.00
2018-09-04T07:11:00.118Z,1268.00
2018-09-04T07:11:59.992Z,1292.00
2018-09-04T07:12:59.869Z,1304.00
2018-09-04T07:13:59.742Z,1304.00
2018-09-04T07:14:59.635Z,1308.00
2018-09-04T07:15:59.492Z,1308.00
2018-09-04T07:16:59.426Z,1308.00
2018-09-04T07:17:59.246Z,1312.00
2018-09-04T07:18:59.125Z,1304.00
2018-09-04T07:19:58.996Z,1296.00
2018-09-04T07:20:58.873Z,1320.00
2018-09-04T07:21:58.751Z,1320.00
2018-09-04T07:22:58.630Z,1324.00
2018-09-04T07:23:58.558Z,1324.00
2018-09-04T07:24:58.380Z,1332.00
2018-09-04T07:25:58.257Z,1348.00
2018-09-04T07:26:58.134Z,1356.00
2018-09-04T07:27:58.007Z,1360.00
2018-09-04T07:28:57.886Z,1360.00
2018-09-04T07:29:57.763Z,1316.00
2018-09-04T07:30:57.640Z,1300.00
2018-09-04T07:31:57.517Z,1352.00
2018-09-04T07:32:57.392Z,1348.00
2018-09-04T07:33:57.269Z,1360.00
2018-09-04T07:34:57.145Z,1372.00
2018-09-04T07:35:57.023Z,1376.00
2018-09-04T07:36:56.899Z,1388.00
2018-09-04T07:37:56.777Z,1392.00
2018-09-04T07:38:56.654Z,1400.00
2018-09-04T07:39:56.531Z,1404.00
2018-09-04T07:40:56.406Z,1404.00
2018-09-04T07:41:56.328Z,1412.00
2018-09-04T07:42:56.161Z,1424.00
2018-09-04T07:43:56.039Z,1428.00
2018-09-04T07:44:55.918Z,1436.00
2018-09-04T07:45:55.793Z,1436.00
2018-09-04T07:46:55.672Z,1444.00
2018-09-04T07:47:55.548Z,1448.00
2018-09-04T07:48:55.425Z,1456.00
2018-09-04T07:49:55.302Z,1460.00
2018-09-04T07:50:55.180Z,1468.00
2018-09-04T07:51:55.054Z,1468.00
2018-09-04T07:52:54.934Z,1476.00
2018-09-04T07:53:54.810Z,1484.00
2018-09-04T07:54:54.687Z,1496.00
2018-09-04T07:55:54.563Z,1492.00
2018-09-04T07:56:54.443Z,1504.00
2018-09-04T07:57:54.319Z,1516.00
2018-09-04T07:58:54.195Z,1516.00
2018-09-04T07:59:54.080Z,1528.00
2018-09-04T08:00:53.998Z,1544.00
2018-09-04T08:01:53.843Z,1564.00
2018-09-04T08:02:53.704Z,1564.00
2018-09-04T08:03:53.582Z,1560.00
2018-09-04T08:04:53.461Z,1584.00
2018-09-04T08:05:53.341Z,1588.00
2018-09-04T08:06:53.216Z,1608.00
2018-09-04T08:07:53.091Z,1640.00
2018-09-04T08:08:52.970Z,1664.00
2018-09-04T08:09:52.847Z,1696.00
2018-09-04T08:10:52.723Z,1676.00
2018-09-04T08:11:52.601Z,1684.00
2018-09-04T08:12:52.479Z,1744.00
2018-09-04T08:13:52.357Z,1844.00
2018-09-04T08:14:52.235Z,1936.00
2018-09-04T08:15:52.115Z,1976.00
2018-09-04T08:16:51.995Z,1844.00
2018-09-04T08:17:51.871Z,1836.00
2018-09-04T08:18:51.752Z,1988.00
2018-09-04T08:19:51.625Z,2084.00
2018-09-04T08:20:51.629Z,2060.00
2018-09-04T08:21:51.380Z,2028.00
2018-09-04T08:22:51.259Z,2064.00
2018-09-04T08:23:51.135Z,2068.00
2018-09-04T08:24:51.018Z,2008.00
2018-09-04T08:25:50.894Z,1980.00
2018-09-04T08:26:50.773Z,1900.00
2018-09-04T08:27:50.650Z,1892.00
2018-09-04T08:28:50.537Z,1888.00
2018-09-04T08:29:50.407Z,2068.00
2018-09-04T08:30:50.286Z,2204.00
2018-09-04T08:31:50.166Z,2240.00
2018-09-04T08:32:50.130Z,2252.00
2018-09-04T08:33:49.924Z,2160.00
2018-09-04T08:34:49.800Z,2152.00
2018-09-04T08:35:49.680Z,2124.00
2018-09-04T08:36:49.565Z,2252.00
2018-09-04T08:37:49.440Z,2560.00
2018-09-04T08:38:49.318Z,2920.00
2018-09-04T08:39:49.218Z,3076.00
2018-09-04T08:40:49.075Z,3004.00
2018-09-04T08:41:48.958Z,2780.00
2018-09-04T08:42:48.839Z,2440.00
2018-09-04T08:43:48.717Z,2260.00
2018-09-04T08:44:48.596Z,2180.00
2018-09-04T08:45:48.474Z,2160.00
2018-09-04T08:46:48.353Z,2296.00
2018-09-04T08:47:48.341Z,2496.00
2018-09-04T08:48:48.115Z,2872.00
2018-09-04T08:49:47.994Z,3304.00
2018-09-04T08:50:47.870Z,3552.00
2018-09-04T08:51:47.750Z,3576.00
2018-09-04T08:52:47.630Z,3628.00
2018-09-04T08:53:47.507Z,3512.00
2018-09-04T08:54:47.389Z,3728.00
2018-09-04T08:55:47.274Z,3956.00
2018-09-04T08:56:47.147Z,4176.00
2018-09-04T08:57:47.029Z,4152.00
2018-09-04T08:58:46.953Z,3900.00
2018-09-04T08:59:46.786Z,3660.00
2018-09-04T09:00:46.665Z,3508.00
2018-09-04T09:01:46.551Z,3208.00
2018-09-04T09:02:46.427Z,2992.00
2018-09-04T09:03:46.345Z,2972.00
2018-09-04T09:04:46.186Z,3208.00
2018-09-04T09:05:46.066Z,3136.00
2018-09-04T09:06:45.946Z,2656.00
2018-09-04T09:07:45.826Z,2360.00
2018-09-04T09:08:45.707Z,2424.00
2018-09-04T09:09:45.586Z,2632.00
2018-09-04T09:10:45.468Z,2552.00
2018-09-04T09:11:45.345Z,2532.00
2018-09-04T09:12:45.228Z,2536.00
2018-09-04T09:13:45.109Z,2648.00
2018-09-04T09:14:44.987Z,3012.00
2018-09-04T09:15:44.873Z,3332.00
2018-09-04T09:16:44.879Z,3484.00
2018-09-04T09:17:44.632Z,3744.00
2018-09-04T09:18:44.509Z,3792.00
2018-09-04T09:19:44.392Z,3672.00
2018-09-04T09:20:44.280Z,3772.00
2018-09-04T09:21:44.153Z,3864.00
2018-09-04T09:22:44.067Z,4200.00
2018-09-04T09:23:43.913Z,4496.00
2018-09-04T09:24:43.801Z,4768.00
2018-09-04T09:25:43.676Z,4768.00
2018-09-04T09:26:43.555Z,4528.00
2018-09-04T09:27:43.443Z,4056.00
2018-09-04T09:28:43.317Z,3676.00
2018-09-04T09:29:43.199Z,3316.00
2018-09-04T09:30:43.082Z,3128.00
2018-09-04T09:31:42.966Z,3152.00
2018-09-04T09:32:42.843Z,2944.00
2018-09-04T09:33:42.723Z,2728.00
2018-09-04T09:34:42.603Z,2508.00
2018-09-04T09:35:42.486Z,2356.00
2018-09-04T09:36:42.402Z,2540.00
2018-09-04T09:37:42.249Z,3052.00
2018-09-04T09:38:42.125Z,3532.00
2018-09-04T09:39:42.007Z,4136.00
2018-09-04T09:40:41.891Z,4336.00
2018-09-04T09:41:41.770Z,4080.00
2018-09-04T09:42:41.647Z,3948.00
2018-09-04T09:43:41.529Z,3912.00
2018-09-04T09:44:41.412Z,3512.00
2018-09-04T09:45:41.294Z,3592.00
2018-09-04T09:46:41.171Z,3792.00
2018-09-04T09:47:41.053Z,3852.00
2018-09-04T09:48:40.934Z,4092.00
2018-09-04T09:49:40.819Z,4764.00
2018-09-04T09:50:40.742Z,5140.00
2018-09-04T09:51:40.579Z,5188.00
2018-09-04T09:52:40.499Z,4664.00
2018-09-04T09:53:40.525Z,4560.00
2018-09-04T09:54:40.223Z,4252.00
2018-09-04T09:55:40.101Z,4320.00
2018-09-04T09:56:39.999Z,4124.00
2018-09-04T09:57:39.867Z,4188.00
2018-09-04T09:58:39.747Z,4820.00
2018-09-04T09:59:39.731Z,5280.00
2018-09-04T10:00:39.509Z,5400.00
2018-09-04T10:01:39.450Z,5636.00
2018-09-04T10:02:39.271Z,5612.00
2018-09-04T10:03:39.153Z,5996.00
2018-09-04T10:04:39.035Z,6132.00
2018-09-04T10:05:38.920Z,6012.00
2018-09-04T10:06:38.799Z,5812.00
2018-09-04T10:07:38.794Z,6760.00
2018-09-04T10:08:38.559Z,5804.00
2018-09-04T10:09:38.438Z,5180.00
2018-09-04T10:10:38.332Z,5188.00
2018-09-04T10:11:38.204Z,5520.00
2018-09-04T10:12:38.083Z,5840.00
2018-09-04T10:13:37.963Z,5808.00
2018-09-04T10:14:37.843Z,5608.00
2018-09-04T10:15:37.725Z,5548.00
2018-09-04T10:16:37.606Z,5344.00
2018-09-04T10:17:37.486Z,5372.00
2018-09-04T10:18:37.366Z,5236.00
2018-09-04T10:19:37.246Z,5264.00
2018-09-04T10:20:37.130Z,5236.00
2018-09-04T10:21:37.009Z,5168.00
2018-09-04T10:22:36.887Z,5016.00
2018-09-04T10:23:36.770Z,5124.00
2018-09-04T10:24:36.649Z,5728.00
2018-09-04T10:25:36.531Z,6364.00
2018-09-04T10:26:36.451Z,5960.00
2018-09-04T10:27:36.292Z,6072.00
2018-09-04T10:28:36.172Z,6056.00
2018-09-04T10:29:36.052Z,6808.00
2018-09-04T10:30:35.931Z,6268.00
2018-09-04T10:31:35.812Z,6684.00
2018-09-04T10:32:35.693Z,5240.00
2018-09-04T10:33:35.576Z,5736.00
2018-09-04T10:34:35.453Z,5556.00
2018-09-04T10:35:35.352Z,5576.00
2018-09-04T10:36:35.217Z,5072.00
2018-09-04T10:37:35.098Z,6104.00
2018-09-04T10:38:34.976Z,6664.00
2018-09-04T10:39:34.859Z,5852.00
2018-09-04T10:40:34.821Z,4900.00
2018-09-04T10:41:34.622Z,3972.00
2018-09-04T10:42:34.503Z,3532.00
2018-09-04T10:43:34.385Z,3340.00
2018-09-04T10:44:34.267Z,3356.00
2018-09-04T10:45:34.152Z,3432.00
2018-09-04T10:46:34.028Z,3368.00
2018-09-04T10:47:33.910Z,2580.00
2018-09-04T10:48:33.795Z,2976.00
2018-09-04T10:49:33.678Z,3144.00
2018-09-04T10:50:33.557Z,3404.00
2018-09-04T10:51:33.442Z,4128.00
2018-09-04T10:52:33.322Z,4300.00
2018-09-04T10:53:33.202Z,4220.00
2018-09-04T10:54:33.087Z,3836.00
2018-09-04T10:55:33.017Z,3644.00
2018-09-04T10:56:32.860Z,3672.00
2018-09-04T10:57:32.765Z,3592.00
2018-09-04T10:58:32.614Z,3340.00
2018-09-04T10:59:32.496Z,2340.00
2018-09-04T11:00:32.377Z,2232.00
2018-09-04T11:01:32.261Z,1776.00
2018-09-04T11:02:32.147Z,2032.00
2018-09-04T11:03:32.024Z,2408.00
2018-09-04T11:04:31.907Z,3412.00
2018-09-04T11:05:31.790Z,3216.00
2018-09-04T11:06:31.669Z,3036.00
2018-09-04T11:07:31.550Z,2580.00
2018-09-04T11:08:31.435Z,3804.00
2018-09-04T11:09:31.397Z,2860.00
2018-09-04T11:10:31.199Z,3056.00
2018-09-04T11:11:31.080Z,3256.00
2018-09-04T11:12:30.961Z,3568.00
2018-09-04T11:13:30.843Z,4232.00
2018-09-04T11:14:30.730Z,4236.00
2018-09-04T11:15:30.616Z,4332.00
2018-09-04T11:16:30.489Z,4948.00
2018-09-04T11:17:30.378Z,4128.00
2018-09-04T11:18:30.251Z,4380.00
2018-09-04T11:19:30.132Z,4440.00
2018-09-04T11:20:30.017Z,4956.00
2018-09-04T11:21:29.901Z,4976.00
2018-09-04T11:22:29.779Z,5612.00
2018-09-04T11:23:29.665Z,6468.00
2018-09-04T11:24:29.558Z,6600.00
2018-09-04T11:25:29.435Z,6924.00
2018-09-04T11:26:29.308Z,6724.00
2018-09-04T11:27:29.201Z,6852.00
2018-09-04T11:28:29.077Z,7088.00
2018-09-04T11:29:28.959Z,6968.00
2018-09-04T11:30:28.842Z,6840.00
2018-09-04T11:31:28.722Z,7080.00
2018-09-04T11:32:28.602Z,7148.00
2018-09-04T11:33:28.485Z,7648.00
2018-09-04T11:34:28.366Z,7940.00
2018-09-04T11:35:28.250Z,8088.00
2018-09-04T11:36:28.133Z,8184.00
2018-09-04T11:37:28.017Z,8092.00
2018-09-04T11:38:27.896Z,8088.00
2018-09-04T11:39:27.779Z,8976.00
2018-09-04T11:40:27.708Z,10224.00
2018-09-04T11:41:27.547Z,8960.00
2018-09-04T11:42:27.424Z,8212.00
2018-09-04T11:43:27.305Z,7984.00
2018-09-04T11:44:27.189Z,8028.00
2018-09-04T11:45:27.074Z,8004.00
2018-09-04T11:46:26.954Z,7544.00
2018-09-04T11:47:26.837Z,7532.00
2018-09-04T11:48:26.720Z,7388.00
2018-09-04T11:49:26.678Z,7636.00
2018-09-04T11:50:26.483Z,7688.00
2018-09-04T11:51:26.365Z,7644.00
2018-09-04T11:52:26.268Z,9028.00
2018-09-04T11:53:26.127Z,9888.00
2018-09-04T11:54:26.009Z,8944.00
2018-09-04T11:55:25.892Z,8280.00
2018-09-04T11:56:25.775Z,8224.00
2018-09-04T11:57:25.653Z,8328.00
2018-09-04T11:58:25.536Z,8332.00
2018-09-04T11:59:25.423Z,7892.00
2018-09-04T12:00:25.303Z,7384.00
2018-09-04T12:01:25.183Z,6868.00
2018-09-04T12:02:25.064Z,6708.00
2018-09-04T12:03:24.943Z,6512.00
2018-09-04T12:04:24.831Z,6200.00
2018-09-04T12:05:24.708Z,6184.00
2018-09-04T12:06:24.590Z,6392.00
2018-09-04T12:07:24.471Z,6280.00
2018-09-04T12:08:24.352Z,6116.00
2018-09-04T12:09:24.232Z,6036.00
2018-09-04T12:10:24.114Z,5984.00
2018-09-04T12:11:23.995Z,6460.00
2018-09-04T12:12:23.900Z,6980.00
2018-09-04T12:13:23.757Z,6420.00
2018-09-04T12:14:23.638Z,6188.00
2018-09-04T12:15:23.520Z,5920.00
2018-09-04T12:16:23.402Z,7276.00
2018-09-04T12:17:23.287Z,7504.00
2018-09-04T12:18:23.175Z,7252.00
2018-09-04T12:19:23.044Z,7672.00
2018-09-04T12:20:22.927Z,8452.00
2018-09-04T12:21:22.887Z,8764.00
2018-09-04T12:22:22.687Z,8756.00
2018-09-04T12:23:22.567Z,8244.00
2018-09-04T12:24:22.450Z,7072.00
2018-09-04T12:25:22.332Z,7216.00
2018-09-04T12:26:22.212Z,7736.00
2018-09-04T12:27:22.241Z,8096.00
2018-09-04T12:28:21.976Z,8460.00
2018-09-04T12:29:21.856Z,7704.00
2018-09-04T12:30:21.738Z,7296.00
2018-09-04T12:31:21.630Z,7208.00
2018-09-04T12:32:21.503Z,7552.00
2018-09-04T12:33:21.380Z,7600.00